Riviera Beach, FL (33404)

2:50 PM EST on February 12, 2016 (GMT -0500)
Singer Island | | Change Station
CLOSE
Current Station
Personal Weather Station
Location: Singer Island, FL
Elevation: 23 ft
Nearby Weather Stations

Elev 23 ft 26.79 °N, 80.04 °W | Updated 4 minutes ago

Partly Cloudy
Partly Cloudy
78.1 °F
Feels Like 79 °F
N
4.3
Wind Variable Wind from North

Today
High -- | Low -- °F
--% Chance of Precip.
Yesterday
High -- | Low -- °F
Precip. -- in
Pressure 30.24 in
Visibility 10.0 miles
Clouds Scattered Clouds 4000 ft
Heat Index 79 °F
Dew Point 57 °F
Humidity 49%
Rainfall Not available.
Snow Depth Not available.
6:59 AM 6:10 PM
Waxing Crescent, 23% visible
METAR KPBI 121853Z 09005KT 10SM SCT040 23/12 A3024 RMK AO2 SLP240 T02280117
Pressure 30.24 in
Visibility 10.0 miles
Clouds Scattered Clouds 4000 ft
Heat Index 79 °F
Dew Point 57 °F
Humidity 49%
Rainfall Not available.
Snow Depth Not available.
6:59 AM 6:10 PM
Waxing Crescent, 23% visible
METAR KPBI 121853Z 09005KT 10SM SCT040 23/12 A3024 RMK AO2 SLP240 T02280117

10-Day Weather Forecast

Almanac

Astronomy

Feb. 12, 2016 Rise Set
Actual Time
Civil Twilight
Nautical Twilight
Astronomical Twilight
Moon
Length of Visible Light
Length of Day
Tomorrow will be .
, % of the Moon is Illuminated

Today's Extremes

State Highs State Lows

Community

WunderPhotos

Upload Photos

1,892,381 photos uploaded!

WunderBlog® & News

Nearby

Air Quality

  Air Quality AQ Index Pollutant
Not available.

Snow Depth

Station Depth Elevation

Earthquake Activity

City Distance Mag. Time & Date
Minimum magnitude displayed is 2.5.

Coastal Water Temperatures

Place Temperature

Stations

Nearby Weather Stations

Station Location Temp. Windchill Dew Point Humidity Wind Precip. Elev Updated Type
                   

Watches & Warnings

There are currently no watches in effect.